sensor_id;sensor_type;location;lat;lon;timestamp;temperature;humidity
2647;DHT22;1333;50.958;6.770;2024-03-02T00:00:23;7.80;99.90
2647;DHT22;1333;50.958;6.770;2024-03-02T00:02:51;7.70;99.90
2647;DHT22;1333;50.958;6.770;2024-03-02T00:05:21;7.70;99.90
2647;DHT22;1333;50.958;6.770;2024-03-02T00:07:55;7.70;99.90
2647;DHT22;1333;50.958;6.770;2024-03-02T00:10:37;7.70;99.90
2647;DHT22;1333;50.958;6.770;2024-03-02T00:13:06;7.70;99.90
2647;DHT22;1333;50.958;6.770;2024-03-02T00:18:01;7.60;99.90
2647;DHT22;1333;50.958;6.770;2024-03-02T00:20:26;7.60;99.90
2647;DHT22;1333;50.958;6.770;2024-03-02T00:23:05;7.60;99.90
2647;DHT22;1333;50.958;6.770;2024-03-02T00:25:47;7.50;99.90
2647;DHT22;1333;50.958;6.770;2024-03-02T00:28:24;7.50;99.90
2647;DHT22;1333;50.958;6.770;2024-03-02T00:31:02;7.60;99.90
2647;DHT22;1333;50.958;6.770;2024-03-02T00:33:31;7.60;99.90
2647;DHT22;1333;50.958;6.770;2024-03-02T00:35:57;7.60;99.90
2647;DHT22;1333;50.958;6.770;2024-03-02T00:38:23;7.70;99.90
2647;DHT22;1333;50.958;6.770;2024-03-02T00:40:48;7.80;99.90
2647;DHT22;1333;50.958;6.770;2024-03-02T00:43:50;7.80;99.90
2647;DHT22;1333;50.958;6.770;2024-03-02T00:46:19;7.80;99.90
2647;DHT22;1333;50.958;6.770;2024-03-02T00:48:51;7.80;99.90
2647;DHT22;1333;50.958;6.770;2024-03-02T00:51:16;7.80;99.90
2647;DHT22;1333;50.958;6.770;2024-03-02T00:53:42;7.80;99.90
2647;DHT22;1333;50.958;6.770;2024-03-02T00:56:10;7.80;99.90
2647;DHT22;1333;50.958;6.770;2024-03-02T00:58:37;7.70;99.90
2647;DHT22;1333;50.958;6.770;2024-03-02T01:01:03;7.60;99.90
2647;DHT22;1333;50.958;6.770;2024-03-02T01:03:28;7.50;99.90
2647;DHT22;1333;50.958;6.770;2024-03-02T01:05:54;7.50;99.90
2647;DHT22;1333;50.958;6.770;2024-03-02T01:08:19;7.40;99.90
2647;DHT22;1333;50.958;6.770;2024-03-02T01:10:45;7.40;99.90
2647;DHT22;1333;50.958;6.770;2024-03-02T01:13:10;7.40;99.90
2647;DHT22;1333;50.958;6.770;2024-03-02T01:15:36;7.40;99.90
2647;DHT22;1333;50.958;6.770;2024-03-02T01:18:02;7.40;99.90
2647;DHT22;1333;50.958;6.770;2024-03-02T01:20:27;7.40;99.90
2647;DHT22;1333;50.958;6.770;2024-03-02T01:22:53;7.40;99.90
2647;DHT22;1333;50.958;6.770;2024-03-02T01:25:18;7.40;99.90
2647;DHT22;1333;50.958;6.770;2024-03-02T01:27:44;7.40;99.90
2647;DHT22;1333;50.958;6.770;2024-03-02T01:30:10;7.40;99.90
2647;DHT22;1333;50.958;6.770;2024-03-02T01:32:38;7.50;99.90
2647;DHT22;1333;50.958;6.770;2024-03-02T01:35:04;7.60;99.90
2647;DHT22;1333;50.958;6.770;2024-03-02T01:37:30;7.60;99.90
2647;DHT22;1333;50.958;6.770;2024-03-02T01:39:55;7.60;99.90
2647;DHT22;1333;50.958;6.770;2024-03-02T01:42:21;7.70;99.90
2647;DHT22;1333;50.958;6.770;2024-03-02T01:44:46;7.80;99.90
2647;DHT22;1333;50.958;6.770;2024-03-02T01:47:12;7.80;99.90
2647;DHT22;1333;50.958;6.770;2024-03-02T01:49:37;7.90;99.90
2647;DHT22;1333;50.958;6.770;2024-03-02T01:52:04;7.90;99.90
2647;DHT22;1333;50.958;6.770;2024-03-02T01:54:29;7.90;99.90
2647;DHT22;1333;50.958;6.770;2024-03-02T01:56:55;7.80;99.90
2647;DHT22;1333;50.958;6.770;2024-03-02T01:59:21;7.80;99.90
2647;DHT22;1333;50.958;6.770;2024-03-02T02:01:47;7.70;99.90
2647;DHT22;1333;50.958;6.770;2024-03-02T02:04:13;7.70;99.90
2647;DHT22;1333;50.958;6.770;2024-03-02T02:06:39;7.60;99.90
2647;DHT22;1333;50.958;6.770;2024-03-02T02:09:04;7.70;99.90
2647;DHT22;1333;50.958;6.770;2024-03-02T02:11:31;7.60;99.90
2647;DHT22;1333;50.958;6.770;2024-03-02T02:13:56;7.60;99.90
2647;DHT22;1333;50.958;6.770;2024-03-02T02:16:22;7.70;99.90
2647;DHT22;1333;50.958;6.770;2024-03-02T02:18:47;7.80;99.90
2647;DHT22;1333;50.958;6.770;2024-03-02T02:21:13;8.00;99.90
2647;DHT22;1333;50.958;6.770;2024-03-02T02:23:39;7.90;99.90
2647;DHT22;1333;50.958;6.770;2024-03-02T02:26:04;8.00;99.90
2647;DHT22;1333;50.958;6.770;2024-03-02T02:28:30;8.10;99.90
2647;DHT22;1333;50.958;6.770;2024-03-02T02:30:56;8.10;99.90
2647;DHT22;1333;50.958;6.770;2024-03-02T02:33:21;8.20;99.90
2647;DHT22;1333;50.958;6.770;2024-03-02T02:35:47;8.30;99.90
2647;DHT22;1333;50.958;6.770;2024-03-02T02:38:13;8.30;99.90
2647;DHT22;1333;50.958;6.770;2024-03-02T02:40:38;8.30;99.90
2647;DHT22;1333;50.958;6.770;2024-03-02T02:43:04;8.30;99.90
2647;DHT22;1333;50.958;6.770;2024-03-02T02:45:29;8.40;99.90
2647;DHT22;1333;50.958;6.770;2024-03-02T02:47:55;8.40;99.90
2647;DHT22;1333;50.958;6.770;2024-03-02T02:50:21;8.40;99.90
2647;DHT22;1333;50.958;6.770;2024-03-02T02:52:46;8.40;99.90
2647;DHT22;1333;50.958;6.770;2024-03-02T02:55:13;8.30;99.90
2647;DHT22;1333;50.958;6.770;2024-03-02T02:57:39;8.10;99.90
2647;DHT22;1333;50.958;6.770;2024-03-02T03:00:10;8.20;99.90
2647;DHT22;1333;50.958;6.770;2024-03-02T03:02:40;8.20;99.90
2647;DHT22;1333;50.958;6.770;2024-03-02T03:05:07;8.30;99.90
2647;DHT22;1333;50.958;6.770;2024-03-02T03:07:33;8.30;99.90
2647;DHT22;1333;50.958;6.770;2024-03-02T03:10:00;8.30;99.90
2647;DHT22;1333;50.958;6.770;2024-03-02T03:12:25;8.30;99.90
2647;DHT22;1333;50.958;6.770;2024-03-02T03:14:51;8.30;99.90
2647;DHT22;1333;50.958;6.770;2024-03-02T03:17:17;8.30;99.90
2647;DHT22;1333;50.958;6.770;2024-03-02T03:19:42;8.30;99.90
2647;DHT22;1333;50.958;6.770;2024-03-02T03:22:08;8.30;99.90
2647;DHT22;1333;50.958;6.770;2024-03-02T03:24:33;8.40;99.90
2647;DHT22;1333;50.958;6.770;2024-03-02T03:26:59;8.40;99.90
2647;DHT22;1333;50.958;6.770;2024-03-02T03:29:24;8.60;99.90
2647;DHT22;1333;50.958;6.770;2024-03-02T03:31:50;8.70;99.90
2647;DHT22;1333;50.958;6.770;2024-03-02T03:34:15;8.70;99.90
2647;DHT22;1333;50.958;6.770;2024-03-02T03:36:42;8.80;99.90
2647;DHT22;1333;50.958;6.770;2024-03-02T03:39:07;8.90;99.90
2647;DHT22;1333;50.958;6.770;2024-03-02T03:41:33;9.00;99.90
2647;DHT22;1333;50.958;6.770;2024-03-02T03:43:58;9.00;99.90
2647;DHT22;1333;50.958;6.770;2024-03-02T03:46:24;9.00;99.90
2647;DHT22;1333;50.958;6.770;2024-03-02T03:48:49;8.90;99.90
2647;DHT22;1333;50.958;6.770;2024-03-02T03:51:15;8.80;99.90
2647;DHT22;1333;50.958;6.770;2024-03-02T03:53:40;8.70;99.90
2647;DHT22;1333;50.958;6.770;2024-03-02T03:56:06;8.60;99.90
2647;DHT22;1333;50.958;6.770;2024-03-02T03:58:31;8.60;99.90
2647;DHT22;1333;50.958;6.770;2024-03-02T04:00:57;8.50;99.90
2647;DHT22;1333;50.958;6.770;2024-03-02T04:03:22;8.40;99.90
2647;DHT22;1333;50.958;6.770;2024-03-02T04:05:48;8.30;99.90
2647;DHT22;1333;50.958;6.770;2024-03-02T04:08:13;8.10;99.90
2647;DHT22;1333;50.958;6.770;2024-03-02T04:10:39;8.00;99.90
2647;DHT22;1333;50.958;6.770;2024-03-02T04:13:05;7.90;99.90
2647;DHT22;1333;50.958;6.770;2024-03-02T04:15:31;7.80;99.90
2647;DHT22;1333;50.958;6.770;2024-03-02T04:17:56;7.60;99.90
2647;DHT22;1333;50.958;6.770;2024-03-02T04:20:22;7.50;99.90
2647;DHT22;1333;50.958;6.770;2024-03-02T04:22:47;7.40;99.90
2647;DHT22;1333;50.958;6.770;2024-03-02T04:25:13;7.30;99.90
2647;DHT22;1333;50.958;6.770;2024-03-02T04:27:38;7.20;99.90
2647;DHT22;1333;50.958;6.770;2024-03-02T04:30:05;7.10;99.90
2647;DHT22;1333;50.958;6.770;2024-03-02T04:32:31;7.20;99.90
2647;DHT22;1333;50.958;6.770;2024-03-02T04:34:56;7.10;99.90
2647;DHT22;1333;50.958;6.770;2024-03-02T04:37:22;7.10;99.90
2647;DHT22;1333;50.958;6.770;2024-03-02T04:39:48;7.00;99.90
2647;DHT22;1333;50.958;6.770;2024-03-02T04:42:13;7.10;99.90
2647;DHT22;1333;50.958;6.770;2024-03-02T04:44:39;7.10;99.90
2647;DHT22;1333;50.958;6.770;2024-03-02T04:47:04;7.10;99.90
2647;DHT22;1333;50.958;6.770;2024-03-02T04:49:30;7.20;99.90
2647;DHT22;1333;50.958;6.770;2024-03-02T04:51:56;7.30;99.90
2647;DHT22;1333;50.958;6.770;2024-03-02T04:54:25;7.40;99.90
2647;DHT22;1333;50.958;6.770;2024-03-02T04:56:50;7.50;99.90
2647;DHT22;1333;50.958;6.770;2024-03-02T04:59:19;7.60;99.90
2647;DHT22;1333;50.958;6.770;2024-03-02T05:01:45;7.70;99.90
2647;DHT22;1333;50.958;6.770;2024-03-02T05:04:11;7.70;99.90
2647;DHT22;1333;50.958;6.770;2024-03-02T05:06:41;7.70;99.90
2647;DHT22;1333;50.958;6.770;2024-03-02T05:09:09;7.80;99.90
2647;DHT22;1333;50.958;6.770;2024-03-02T05:11:35;7.90;99.90
2647;DHT22;1333;50.958;6.770;2024-03-02T05:14:04;8.00;99.90
2647;DHT22;1333;50.958;6.770;2024-03-02T05:16:33;8.10;99.90
2647;DHT22;1333;50.958;6.770;2024-03-02T05:18:59;8.20;99.90
2647;DHT22;1333;50.958;6.770;2024-03-02T05:21:24;8.20;99.90
2647;DHT22;1333;50.958;6.770;2024-03-02T05:23:49;8.30;99.90
2647;DHT22;1333;50.958;6.770;2024-03-02T05:26:15;8.30;99.90
2647;DHT22;1333;50.958;6.770;2024-03-02T05:28:41;8.10;99.90
2647;DHT22;1333;50.958;6.770;2024-03-02T05:31:06;8.00;99.90
2647;DHT22;1333;50.958;6.770;2024-03-02T05:33:32;8.00;99.90
2647;DHT22;1333;50.958;6.770;2024-03-02T05:35:58;7.80;99.90
2647;DHT22;1333;50.958;6.770;2024-03-02T05:38:24;7.70;99.90
2647;DHT22;1333;50.958;6.770;2024-03-02T05:40:49;7.60;99.90
2647;DHT22;1333;50.958;6.770;2024-03-02T05:43:15;7.40;99.90
2647;DHT22;1333;50.958;6.770;2024-03-02T05:45:41;7.10;99.90
2647;DHT22;1333;50.958;6.770;2024-03-02T05:48:07;7.00;99.90
2647;DHT22;1333;50.958;6.770;2024-03-02T05:50:33;6.70;99.90
2647;DHT22;1333;50.958;6.770;2024-03-02T05:52:58;6.60;99.90
2647;DHT22;1333;50.958;6.770;2024-03-02T05:55:24;6.40;99.90
2647;DHT22;1333;50.958;6.770;2024-03-02T05:57:50;6.50;99.90
2647;DHT22;1333;50.958;6.770;2024-03-02T06:00:44;6.40;99.90
2647;DHT22;1333;50.958;6.770;2024-03-02T06:03:10;6.30;99.90
2647;DHT22;1333;50.958;6.770;2024-03-02T06:05:36;6.20;99.90
2647;DHT22;1333;50.958;6.770;2024-03-02T06:08:01;6.20;99.90
2647;DHT22;1333;50.958;6.770;2024-03-02T06:10:27;6.30;99.90
2647;DHT22;1333;50.958;6.770;2024-03-02T06:12:52;6.40;99.90
2647;DHT22;1333;50.958;6.770;2024-03-02T06:15:18;6.50;99.90
2647;DHT22;1333;50.958;6.770;2024-03-02T06:17:44;6.60;99.90
2647;DHT22;1333;50.958;6.770;2024-03-02T06:20:09;6.60;99.90
2647;DHT22;1333;50.958;6.770;2024-03-02T06:22:36;6.70;99.90
2647;DHT22;1333;50.958;6.770;2024-03-02T06:25:01;6.70;99.90
2647;DHT22;1333;50.958;6.770;2024-03-02T06:27:27;6.80;99.90
2647;DHT22;1333;50.958;6.770;2024-03-02T06:29:52;6.90;99.90
2647;DHT22;1333;50.958;6.770;2024-03-02T06:32:18;7.00;99.90
2647;DHT22;1333;50.958;6.770;2024-03-02T06:34:44;7.10;99.90
2647;DHT22;1333;50.958;6.770;2024-03-02T06:37:09;7.20;99.90
2647;DHT22;1333;50.958;6.770;2024-03-02T06:39:35;7.20;99.90
2647;DHT22;1333;50.958;6.770;2024-03-02T06:42:01;7.30;99.90
2647;DHT22;1333;50.958;6.770;2024-03-02T06:44:27;7.40;99.90
2647;DHT22;1333;50.958;6.770;2024-03-02T06:46:52;7.40;99.90
2647;DHT22;1333;50.958;6.770;2024-03-02T06:49:18;7.40;99.90
2647;DHT22;1333;50.958;6.770;2024-03-02T06:51:44;7.40;99.90
2647;DHT22;1333;50.958;6.770;2024-03-02T06:54:09;7.40;99.90
2647;DHT22;1333;50.958;6.770;2024-03-02T06:56:35;7.30;99.90
2647;DHT22;1333;50.958;6.770;2024-03-02T06:59:01;7.40;99.90
2647;DHT22;1333;50.958;6.770;2024-03-02T07:01:26;7.40;99.90
2647;DHT22;1333;50.958;6.770;2024-03-02T07:03:53;7.60;99.90
2647;DHT22;1333;50.958;6.770;2024-03-02T07:06:18;7.70;99.90
2647;DHT22;1333;50.958;6.770;2024-03-02T07:08:44;7.80;99.90
2647;DHT22;1333;50.958;6.770;2024-03-02T07:11:09;8.00;99.90
2647;DHT22;1333;50.958;6.770;2024-03-02T07:13:35;8.20;99.90
2647;DHT22;1333;50.958;6.770;2024-03-02T07:16:00;8.30;99.90
2647;DHT22;1333;50.958;6.770;2024-03-02T07:18:32;8.50;99.90
2647;DHT22;1333;50.958;6.770;2024-03-02T07:20:58;8.60;99.90
2647;DHT22;1333;50.958;6.770;2024-03-02T07:23:26;8.70;99.90
2647;DHT22;1333;50.958;6.770;2024-03-02T07:25:53;8.90;99.90
2647;DHT22;1333;50.958;6.770;2024-03-02T07:28:27;9.00;99.90
2647;DHT22;1333;50.958;6.770;2024-03-02T07:31:04;9.10;99.90
2647;DHT22;1333;50.958;6.770;2024-03-02T07:33:33;9.30;99.90
2647;DHT22;1333;50.958;6.770;2024-03-02T07:35:59;9.40;99.90
2647;DHT22;1333;50.958;6.770;2024-03-02T07:38:26;9.50;99.90
2647;DHT22;1333;50.958;6.770;2024-03-02T07:40:52;9.60;99.90
2647;DHT22;1333;50.958;6.770;2024-03-02T07:43:21;9.80;99.90
2647;DHT22;1333;50.958;6.770;2024-03-02T07:45:47;9.80;99.90
2647;DHT22;1333;50.958;6.770;2024-03-02T07:48:14;9.90;99.90
2647;DHT22;1333;50.958;6.770;2024-03-02T07:50:39;10.10;99.90
2647;DHT22;1333;50.958;6.770;2024-03-02T07:53:05;10.40;99.90
2647;DHT22;1333;50.958;6.770;2024-03-02T07:55:31;10.80;99.90
2647;DHT22;1333;50.958;6.770;2024-03-02T07:57:57;11.40;99.90
2647;DHT22;1333;50.958;6.770;2024-03-02T08:00:23;12.20;99.90
2647;DHT22;1333;50.958;6.770;2024-03-02T08:02:50;12.80;99.90
2647;DHT22;1333;50.958;6.770;2024-03-02T08:05:16;13.20;99.90
2647;DHT22;1333;50.958;6.770;2024-03-02T08:07:43;13.10;99.90
2647;DHT22;1333;50.958;6.770;2024-03-02T08:10:09;13.40;99.90
2647;DHT22;1333;50.958;6.770;2024-03-02T08:12:34;14.70;99.90
2647;DHT22;1333;50.958;6.770;2024-03-02T08:15:00;16.30;99.90
2647;DHT22;1333;50.958;6.770;2024-03-02T08:17:25;17.70;94.10
2647;DHT22;1333;50.958;6.770;2024-03-02T08:19:51;18.60;80.60
2647;DHT22;1333;50.958;6.770;2024-03-02T08:22:17;19.00;69.10
2647;DHT22;1333;50.958;6.770;2024-03-02T08:24:42;18.80;66.00
2647;DHT22;1333;50.958;6.770;2024-03-02T08:27:08;18.10;62.40
2647;DHT22;1333;50.958;6.770;2024-03-02T08:29:34;18.20;64.80
2647;DHT22;1333;50.958;6.770;2024-03-02T08:32:00;18.40;63.20
2647;DHT22;1333;50.958;6.770;2024-03-02T08:34:26;18.10;61.70
2647;DHT22;1333;50.958;6.770;2024-03-02T08:36:51;17.60;60.50
2647;DHT22;1333;50.958;6.770;2024-03-02T08:39:17;17.00;62.40
2647;DHT22;1333;50.958;6.770;2024-03-02T08:41:45;17.00;63.50
2647;DHT22;1333;50.958;6.770;2024-03-02T08:44:12;17.10;63.50
2647;DHT22;1333;50.958;6.770;2024-03-02T08:46:39;17.70;63.90
2647;DHT22;1333;50.958;6.770;2024-03-02T08:49:05;18.40;62.20
2647;DHT22;1333;50.958;6.770;2024-03-02T08:51:31;19.50;59.00
2647;DHT22;1333;50.958;6.770;2024-03-02T08:53:57;20.20;56.90
2647;DHT22;1333;50.958;6.770;2024-03-02T08:56:23;21.10;53.70
2647;DHT22;1333;50.958;6.770;2024-03-02T08:58:50;21.90;51.00
2647;DHT22;1333;50.958;6.770;2024-03-02T09:01:17;22.50;49.80
2647;DHT22;1333;50.958;6.770;2024-03-02T09:03:42;23.00;47.20
2647;DHT22;1333;50.958;6.770;2024-03-02T09:06:13;23.40;45.40
2647;DHT22;1333;50.958;6.770;2024-03-02T09:08:39;23.60;45.10
2647;DHT22;1333;50.958;6.770;2024-03-02T09:11:05;23.70;44.70
2647;DHT22;1333;50.958;6.770;2024-03-02T09:13:32;24.50;43.30
2647;DHT22;1333;50.958;6.770;2024-03-02T09:15:58;24.70;41.70
2647;DHT22;1333;50.958;6.770;2024-03-02T09:18:23;24.80;41.40
2647;DHT22;1333;50.958;6.770;2024-03-02T09:20:49;25.40;40.00
2647;DHT22;1333;50.958;6.770;2024-03-02T09:23:14;25.90;38.60
2647;DHT22;1333;50.958;6.770;2024-03-02T09:25:40;25.80;37.70
2647;DHT22;1333;50.958;6.770;2024-03-02T09:28:05;26.10;36.90
2647;DHT22;1333;50.958;6.770;2024-03-02T09:30:32;26.30;36.30
2647;DHT22;1333;50.958;6.770;2024-03-02T09:32:58;25.80;35.40
2647;DHT22;1333;50.958;6.770;2024-03-02T09:35:24;26.10;36.00
2647;DHT22;1333;50.958;6.770;2024-03-02T09:37:50;25.80;35.40
2647;DHT22;1333;50.958;6.770;2024-03-02T09:40:16;25.80;35.50
2647;DHT22;1333;50.958;6.770;2024-03-02T09:42:42;25.00;35.90
2647;DHT22;1333;50.958;6.770;2024-03-02T09:45:09;24.90;37.00
2647;DHT22;1333;50.958;6.770;2024-03-02T09:47:34;24.70;36.30
2647;DHT22;1333;50.958;6.770;2024-03-02T09:50:00;24.40;36.10
2647;DHT22;1333;50.958;6.770;2024-03-02T09:52:26;23.50;36.60
2647;DHT22;1333;50.958;6.770;2024-03-02T09:54:51;23.00;37.20
2647;DHT22;1333;50.958;6.770;2024-03-02T09:57:17;23.00;37.80
2647;DHT22;1333;50.958;6.770;2024-03-02T09:59:43;23.90;38.30
2647;DHT22;1333;50.958;6.770;2024-03-02T10:02:08;24.80;37.00
2647;DHT22;1333;50.958;6.770;2024-03-02T10:04:34;25.00;35.50
2647;DHT22;1333;50.958;6.770;2024-03-02T10:07:17;25.50;35.70
2647;DHT22;1333;50.958;6.770;2024-03-02T10:09:45;25.90;34.90
2647;DHT22;1333;50.958;6.770;2024-03-02T10:12:13;26.10;35.00
2647;DHT22;1333;50.958;6.770;2024-03-02T10:14:39;26.20;34.00
2647;DHT22;1333;50.958;6.770;2024-03-02T10:17:07;26.50;33.90
2647;DHT22;1333;50.958;6.770;2024-03-02T10:19:33;26.50;33.60
2647;DHT22;1333;50.958;6.770;2024-03-02T10:22:04;27.00;33.70
2647;DHT22;1333;50.958;6.770;2024-03-02T10:24:42;27.40;33.10
2647;DHT22;1333;50.958;6.770;2024-03-02T10:27:18;27.60;32.60
2647;DHT22;1333;50.958;6.770;2024-03-02T10:29:47;27.90;31.50
2647;DHT22;1333;50.958;6.770;2024-03-02T10:32:13;27.80;31.30
2647;DHT22;1333;50.958;6.770;2024-03-02T10:34:45;27.40;31.40
2647;DHT22;1333;50.958;6.770;2024-03-02T10:37:12;27.40;31.80
2647;DHT22;1333;50.958;6.770;2024-03-02T10:39:38;27.10;31.70
2647;DHT22;1333;50.958;6.770;2024-03-02T10:42:07;27.30;31.40
2647;DHT22;1333;50.958;6.770;2024-03-02T10:44:34;27.50;31.50
2647;DHT22;1333;50.958;6.770;2024-03-02T10:47:01;27.70;31.60
2647;DHT22;1333;50.958;6.770;2024-03-02T10:49:29;27.90;31.70
2647;DHT22;1333;50.958;6.770;2024-03-02T10:51:55;27.70;30.50
2647;DHT22;1333;50.958;6.770;2024-03-02T10:54:20;27.20;30.70
2647;DHT22;1333;50.958;6.770;2024-03-02T10:56:53;27.00;31.10
2647;DHT22;1333;50.958;6.770;2024-03-02T11:01:55;26.50;30.70
2647;DHT22;1333;50.958;6.770;2024-03-02T11:04:21;26.80;31.90
2647;DHT22;1333;50.958;6.770;2024-03-02T11:06:52;27.60;31.80
2647;DHT22;1333;50.958;6.770;2024-03-02T11:09:22;28.30;31.00
2647;DHT22;1333;50.958;6.770;2024-03-02T11:12:00;28.60;30.40
2647;DHT22;1333;50.958;6.770;2024-03-02T11:14:30;29.20;30.00
2647;DHT22;1333;50.958;6.770;2024-03-02T11:16:57;28.50;29.20
2647;DHT22;1333;50.958;6.770;2024-03-02T11:19:23;28.10;29.40
2647;DHT22;1333;50.958;6.770;2024-03-02T11:21:50;27.60;29.90
2647;DHT22;1333;50.958;6.770;2024-03-02T11:26:47;28.20;30.20
2647;DHT22;1333;50.958;6.770;2024-03-02T11:32:06;27.80;30.00
2647;DHT22;1333;50.958;6.770;2024-03-02T11:34:38;27.90;29.70
2647;DHT22;1333;50.958;6.770;2024-03-02T11:37:05;28.20;30.00
2647;DHT22;1333;50.958;6.770;2024-03-02T11:39:31;27.70;29.50
2647;DHT22;1333;50.958;6.770;2024-03-02T11:41:57;27.40;30.10
2647;DHT22;1333;50.958;6.770;2024-03-02T11:44:26;27.70;30.50
2647;DHT22;1333;50.958;6.770;2024-03-02T11:46:59;28.90;30.70
2647;DHT22;1333;50.958;6.770;2024-03-02T11:50:00;29.20;29.10
2647;DHT22;1333;50.958;6.770;2024-03-02T11:52:25;28.90;29.00
2647;DHT22;1333;50.958;6.770;2024-03-02T11:54:53;29.30;29.70
2647;DHT22;1333;50.958;6.770;2024-03-02T11:57:20;29.90;28.90
2647;DHT22;1333;50.958;6.770;2024-03-02T11:59:48;29.40;28.50
2647;DHT22;1333;50.958;6.770;2024-03-02T12:02:16;28.20;28.90
2647;DHT22;1333;50.958;6.770;2024-03-02T12:04:43;27.30;29.60
2647;DHT22;1333;50.958;6.770;2024-03-02T12:07:10;25.80;30.20
2647;DHT22;1333;50.958;6.770;2024-03-02T12:09:36;24.70;31.80
2647;DHT22;1333;50.958;6.770;2024-03-02T12:12:09;24.20;32.90
2647;DHT22;1333;50.958;6.770;2024-03-02T12:14:37;23.40;33.80
2647;DHT22;1333;50.958;6.770;2024-03-02T12:17:03;22.60;34.50
2647;DHT22;1333;50.958;6.770;2024-03-02T12:19:30;22.00;35.60
2647;DHT22;1333;50.958;6.770;2024-03-02T12:21:59;21.60;37.10
2647;DHT22;1333;50.958;6.770;2024-03-02T12:24:29;21.10;37.90
2647;DHT22;1333;50.958;6.770;2024-03-02T12:26:55;21.00;38.30
2647;DHT22;1333;50.958;6.770;2024-03-02T12:29:22;21.10;38.90
2647;DHT22;1333;50.958;6.770;2024-03-02T12:31:49;20.50;39.90
2647;DHT22;1333;50.958;6.770;2024-03-02T12:34:15;20.40;40.30
2647;DHT22;1333;50.958;6.770;2024-03-02T12:36:41;20.40;40.30
2647;DHT22;1333;50.958;6.770;2024-03-02T12:39:10;20.20;41.00
2647;DHT22;1333;50.958;6.770;2024-03-02T12:41:36;20.10;40.40
2647;DHT22;1333;50.958;6.770;2024-03-02T12:44:05;19.70;41.00
2647;DHT22;1333;50.958;6.770;2024-03-02T12:46:34;19.30;42.70
2647;DHT22;1333;50.958;6.770;2024-03-02T12:49:10;18.70;43.70
2647;DHT22;1333;50.958;6.770;2024-03-02T12:51:37;18.40;45.00
2647;DHT22;1333;50.958;6.770;2024-03-02T12:54:03;18.00;44.70
2647;DHT22;1333;50.958;6.770;2024-03-02T12:56:29;17.70;46.10
2647;DHT22;1333;50.958;6.770;2024-03-02T12:58:55;17.60;46.10
2647;DHT22;1333;50.958;6.770;2024-03-02T13:01:20;17.40;46.80
2647;DHT22;1333;50.958;6.770;2024-03-02T13:03:49;17.40;47.10
2647;DHT22;1333;50.958;6.770;2024-03-02T13:06:16;17.30;47.00
2647;DHT22;1333;50.958;6.770;2024-03-02T13:08:42;17.30;48.80
2647;DHT22;1333;50.958;6.770;2024-03-02T13:11:08;17.10;48.30
2647;DHT22;1333;50.958;6.770;2024-03-02T13:13:33;17.00;48.00
2647;DHT22;1333;50.958;6.770;2024-03-02T13:16:00;17.10;49.10
2647;DHT22;1333;50.958;6.770;2024-03-02T13:18:26;17.10;49.20
2647;DHT22;1333;50.958;6.770;2024-03-02T13:20:52;17.80;50.20
2647;DHT22;1333;50.958;6.770;2024-03-02T13:23:18;18.40;48.30
2647;DHT22;1333;50.958;6.770;2024-03-02T13:25:43;18.30;47.50
2647;DHT22;1333;50.958;6.770;2024-03-02T13:28:08;18.00;47.10
2647;DHT22;1333;50.958;6.770;2024-03-02T13:30:34;17.50;48.10
2647;DHT22;1333;50.958;6.770;2024-03-02T13:33:00;16.90;49.90
2647;DHT22;1333;50.958;6.770;2024-03-02T13:35:26;16.60;51.60
2647;DHT22;1333;50.958;6.770;2024-03-02T13:37:51;16.40;53.30
2647;DHT22;1333;50.958;6.770;2024-03-02T13:40:17;16.20;53.50
2647;DHT22;1333;50.958;6.770;2024-03-02T13:42:49;16.10;54.40
2647;DHT22;1333;50.958;6.770;2024-03-02T13:45:16;16.00;54.90
2647;DHT22;1333;50.958;6.770;2024-03-02T13:47:41;15.80;56.20
2647;DHT22;1333;50.958;6.770;2024-03-02T13:50:07;15.80;56.00
2647;DHT22;1333;50.958;6.770;2024-03-02T13:52:33;15.60;56.00
2647;DHT22;1333;50.958;6.770;2024-03-02T13:54:58;15.50;56.80
2647;DHT22;1333;50.958;6.770;2024-03-02T13:57:24;15.30;57.40
2647;DHT22;1333;50.958;6.770;2024-03-02T13:59:50;15.30;58.60
2647;DHT22;1333;50.958;6.770;2024-03-02T14:02:17;15.30;59.60
2647;DHT22;1333;50.958;6.770;2024-03-02T14:04:43;15.30;61.90
2647;DHT22;1333;50.958;6.770;2024-03-02T14:07:08;15.40;62.90
2647;DHT22;1333;50.958;6.770;2024-03-02T14:09:34;15.40;63.90
2647;DHT22;1333;50.958;6.770;2024-03-02T14:12:00;15.70;65.00
2647;DHT22;1333;50.958;6.770;2024-03-02T14:14:26;15.70;63.60
2647;DHT22;1333;50.958;6.770;2024-03-02T14:16:55;15.70;62.70
2647;DHT22;1333;50.958;6.770;2024-03-02T14:19:29;16.00;62.20
2647;DHT22;1333;50.958;6.770;2024-03-02T14:21:55;16.30;62.60
2647;DHT22;1333;50.958;6.770;2024-03-02T14:24:21;16.60;61.30
2647;DHT22;1333;50.958;6.770;2024-03-02T14:26:52;17.20;59.80
2647;DHT22;1333;50.958;6.770;2024-03-02T14:29:18;17.20;56.90
2647;DHT22;1333;50.958;6.770;2024-03-02T14:31:43;17.20;56.80
2647;DHT22;1333;50.958;6.770;2024-03-02T14:34:12;17.20;56.30
2647;DHT22;1333;50.958;6.770;2024-03-02T14:36:37;17.40;56.90
2647;DHT22;1333;50.958;6.770;2024-03-02T14:39:03;17.50;55.60
2647;DHT22;1333;50.958;6.770;2024-03-02T14:41:29;17.10;55.40
2647;DHT22;1333;50.958;6.770;2024-03-02T14:43:55;16.70;56.60
2647;DHT22;1333;50.958;6.770;2024-03-02T14:46:20;16.30;58.20
2647;DHT22;1333;50.958;6.770;2024-03-02T14:48:46;16.20;58.60
2647;DHT22;1333;50.958;6.770;2024-03-02T14:51:12;16.00;59.10
2647;DHT22;1333;50.958;6.770;2024-03-02T14:53:38;15.90;59.40
2647;DHT22;1333;50.958;6.770;2024-03-02T14:56:05;15.80;59.00
2647;DHT22;1333;50.958;6.770;2024-03-02T14:58:30;15.90;59.00
2647;DHT22;1333;50.958;6.770;2024-03-02T15:00:56;16.00;59.40
2647;DHT22;1333;50.958;6.770;2024-03-02T15:03:21;16.10;57.60
2647;DHT22;1333;50.958;6.770;2024-03-02T15:05:47;16.70;58.00
2647;DHT22;1333;50.958;6.770;2024-03-02T15:08:17;17.80;57.20
2647;DHT22;1333;50.958;6.770;2024-03-02T15:10:42;18.70;54.10
2647;DHT22;1333;50.958;6.770;2024-03-02T15:13:08;18.90;51.80
2647;DHT22;1333;50.958;6.770;2024-03-02T15:15:33;19.10;51.30
2647;DHT22;1333;50.958;6.770;2024-03-02T15:17:59;19.40;51.00
2647;DHT22;1333;50.958;6.770;2024-03-02T15:20:24;19.90;49.90
2647;DHT22;1333;50.958;6.770;2024-03-02T15:22:50;20.00;49.00
2647;DHT22;1333;50.958;6.770;2024-03-02T15:25:15;19.50;49.80
2647;DHT22;1333;50.958;6.770;2024-03-02T15:27:42;18.80;50.10
2647;DHT22;1333;50.958;6.770;2024-03-02T15:30:08;18.30;50.60
2647;DHT22;1333;50.958;6.770;2024-03-02T15:32:33;17.70;50.30
2647;DHT22;1333;50.958;6.770;2024-03-02T15:34:59;17.00;51.30
2647;DHT22;1333;50.958;6.770;2024-03-02T15:37:25;16.50;51.80
2647;DHT22;1333;50.958;6.770;2024-03-02T15:39:50;16.10;53.30
2647;DHT22;1333;50.958;6.770;2024-03-02T15:42:16;15.80;54.40
2647;DHT22;1333;50.958;6.770;2024-03-02T15:44:43;15.60;55.40
2647;DHT22;1333;50.958;6.770;2024-03-02T15:47:08;15.60;56.20
2647;DHT22;1333;50.958;6.770;2024-03-02T15:49:34;15.80;56.70
2647;DHT22;1333;50.958;6.770;2024-03-02T15:52:00;16.30;56.50
2647;DHT22;1333;50.958;6.770;2024-03-02T15:54:27;16.70;56.10
2647;DHT22;1333;50.958;6.770;2024-03-02T15:56:52;16.80;55.00
2647;DHT22;1333;50.958;6.770;2024-03-02T15:59:18;16.80;54.90
2647;DHT22;1333;50.958;6.770;2024-03-02T16:01:44;16.50;54.20
2647;DHT22;1333;50.958;6.770;2024-03-02T16:04:09;16.30;55.10
2647;DHT22;1333;50.958;6.770;2024-03-02T16:06:35;16.00;55.90
2647;DHT22;1333;50.958;6.770;2024-03-02T16:09:00;15.80;57.00
2647;DHT22;1333;50.958;6.770;2024-03-02T16:11:26;15.50;56.50
2647;DHT22;1333;50.958;6.770;2024-03-02T16:13:52;15.40;57.60
2647;DHT22;1333;50.958;6.770;2024-03-02T16:16:17;15.30;59.60